Terminal Aerodrome Forecast
Issued by NWS Cleveland, OH

Home | Current Version | Previous Version | Graphics & Text | Print | Product List | Glossary On
Versions: 1 2 3 4 5 6 7 8 9 10 11 12 13 14
000
FTUS41 KCLE 261429 AAA
TAFYNG
TAF AMD
KYNG 261429Z 2614/2712 VRB04KT P6SM FEW022 SCT090
     FM261530 33003KT P6SM VCSH BKN028 OVC250
     FM261900 35006KT P6SM BKN035 BKN250
     FM270000 01003KT P6SM SKC
     FM271000 VRB03KT 4SM BR SKC=

USA.gov is the U.S. government's official web portal to all federal, state and local government web resources and services.